• Join FlightAware (Why Join?)
  • Login
  • US Flag 
12:15PM EDT


 

Airport Tracker/Info


-or-


 

Live Flight TrackerFlight Track Log ✈ UAL4234 ✈ 12-Apr-2013 ✈ KVPS - KIAH

Flight Track Log - Related Links

Times and Time Zones

All times are in EDT time to prevent confusion due to time zone crossing. See the UAL4234 flight status page for this flight to view local times or setup timezone preferences in your user account.

Time Position Orientation Groundspeed Altitude Reporting Facility
EDT Latitude Longitude Course Direction KTS MPH feet Rate Location/Type
07:22AM 30.7202 -86.6268 337° Northwest  Level FlightAware Approximate
07:22AM 30.6433 -86.5069 265° West 439 505 4,800  Level Jacksonville Center
07:23AM 30.8055 -86.6622 341° North  Level FlightAware Approximate
07:23AM 30.7222 -86.5172 354° North 339 390 7,100  Level Jacksonville Center
07:24AM 30.8144 -86.7582 264° West  Level FlightAware Approximate
07:24AM 30.7972 -86.5272 353° North 296 341 9,400  Level Jacksonville Center
07:25AM 30.8049 -86.8631 264° West  Level FlightAware Approximate
07:25AM 30.8825 -86.5331 357° North 289 333 11,000  Level Jacksonville Center
07:26AM 30.8000 -86.9682 270° West  Level FlightAware Approximate
07:26AM 30.9372 -86.5956 316° Northwest 273 314 12,300  Level Jacksonville Center
07:27AM 30.7948 -87.0734 265° West  Level FlightAware Approximate
07:27AM 30.9172 -86.7039 258° West 234 269 13,800  Level Jacksonville Center
07:28AM 30.9164 -86.8031 269° West 269 310 14,900 1,080 Climbing Jacksonville Center
07:29AM 30.9150 -86.9072 269° West 303 349 16,000 1,020 Climbing Jacksonville Center
07:30AM 30.9175 -87.0775 271° West 326 375 17,800 960 Climbing Houston Center
07:31AM 30.9242 -87.1836 274° West 329 379 18,800 1,020 Climbing Houston Center
07:32AM 30.9297 -87.2925 273° West 335 386 19,900 1,080 Climbing Houston Center
07:33AM 30.9356 -87.4247 273° West 341 392 21,100 1,080 Climbing Houston Center
07:34AM 30.9200 -87.5350 261° West 355 409 22,200 1,080 Climbing Houston Center
07:35AM 30.8897 -87.6392 251° West 344 396 23,300 1,020 Climbing Houston Center
07:36AM 30.8597 -87.7467 252° West 351 404 24,300 1,020 Climbing Houston Center
07:37AM 30.8306 -87.8531 252° West 349 402 25,400 1,080 Climbing Houston Center
07:38AM 30.8008 -87.9589 252° West 347 399 26,600 1,200 Climbing Houston Center
07:39AM 30.7706 -88.0625 251° West 342 394 27,900 1,200 Climbing Houston Center
07:40AM 30.7425 -88.1647 252° West 336 387 29,100 1,140 Climbing Houston Center
07:42AM 30.7142 -88.2650 252° West 329 379 30,300 1,200 Climbing Houston Center
07:43AM 30.6842 -88.3722 252° West 330 380 31,600 1,200 Climbing Houston Center
07:44AM 30.6550 -88.4739 252° West 331 381 32,800 1,080 Climbing Houston Center
07:45AM 30.6267 -88.5742 252° West 326 375 33,900 540 Climbing Houston Center
07:46AM 30.5978 -88.6775 252° West 335 386 34,000  Climbing Houston Center
07:47AM 30.5664 -88.7869 252° West 355 409 34,000  Level Houston Center
07:48AM 30.5347 -88.8978 252° West 361 415 34,000  Level Houston Center
07:49AM 30.4978 -89.0258 252° West 371 427 34,000  Level Houston Center
07:50AM 30.4658 -89.1372 252° West 366 421 34,000  Level Houston Center
07:51AM 30.4336 -89.2478 251° West 363 418 34,000  Level Houston Center
07:52AM 30.4025 -89.3575 252° West 361 415 34,000  Level Houston Center
07:53AM 30.3703 -89.4667 251° West 359 413 34,000  Level Houston Center
07:54AM 30.3392 -89.5767 252° West 359 413 34,000  Level Houston Center
07:55AM 30.3039 -89.6942 251° West 360 414 34,000  Level Houston Center
07:56AM 30.2683 -89.8042 250° West 365 420 34,000  Level Houston Center
07:57AM 30.2386 -89.9172 253° West 366 421 34,000  Level Houston Center
07:58AM 30.2061 -90.0278 251° West 363 418 34,000  Level Houston Center
07:59AM 30.1731 -90.1381 251° West 363 418 34,000  Level Houston Center
08:00AM 30.1403 -90.2492 251° West 364 419 34,000  Level Houston Center
08:01AM 30.1064 -90.3611 251° West 368 423 34,000  Level Houston Center
08:02AM 30.0653 -90.4950 250° West 369 425 34,000  Level Houston Center
08:03AM 30.0317 -90.6072 251° West 370 426 34,000  Level Houston Center
08:04AM 29.9986 -90.7186 251° West 369 425 34,000 -60 Level Houston Center
08:05AM 29.9644 -90.8303 251° West 369 425 33,900  Descending Houston Center
08:06AM 29.9300 -90.9392 250° West 364 419 34,000  Climbing Houston Center
08:07AM 29.8969 -91.0483 251° West 360 414 34,000  Level Houston Center
08:08AM 29.8636 -91.1569 251° West 360 414 34,000  Level Houston Center
08:09AM 29.8314 -91.2667 251° West 362 417 34,000  Level Houston Center
08:10AM 29.7947 -91.3789 249° West 372 428 34,000  Level Houston Center
08:11AM 29.7619 -91.4889 251° West 367 422 34,000  Level Houston Center
08:12AM 29.7278 -91.5969 250° West 362 417 34,000  Level Houston Center
08:13AM 29.6875 -91.7281 251° West 362 417 34,000  Level Houston Center
08:14AM 29.6519 -91.8411 250° West 364 419 34,000  Level Houston Center
08:15AM 29.6169 -91.9517 250° West 368 423 34,000  Level Houston Center
08:16AM 29.5806 -92.0647 250° West 375 432 34,000  Level Houston Center
08:17AM 29.5456 -92.1758 250° West 372 428 34,000  Level Houston Center
08:18AM 29.5106 -92.2875 250° West 372 428 34,000  Level Houston Center
08:19AM 29.4753 -92.3975 250° West 369 425 34,000  Level Houston Center
08:20AM 29.4583 -92.5133 260° West 373 429 34,000  Level Houston Center
08:21AM 29.4647 -92.6342 274° West 379 436 34,000  Level Houston Center
08:22AM 29.4697 -92.7528 273° West 374 430 34,000  Level Houston Center
08:23AM 29.4750 -92.8742 273° West 379 436 34,000 -180 Level Houston Center
08:24AM 29.4814 -93.0181 273° West 376 433 33,700 -1,200 Descending Houston Center
08:25AM 29.4875 -93.1397 273° West 380 437 31,600 -2,100 Descending Houston Center
08:26AM 29.4919 -93.2617 272° West 382 440 29,500 -2,100 Descending Houston Center
08:27AM 29.4972 -93.3856 273° West 388 447 27,400 -2,100 Descending Houston Center
08:28AM 29.5031 -93.5142 273° West 400 460 25,200 -2,100 Descending Houston Center
08:29AM 29.5067 -93.6431 272° West 403 464 23,100 -2,040 Descending Houston Center
08:30AM 29.5125 -93.7669 273° West 392 451 21,100 -1,980 Descending Houston Center
08:31AM 29.5169 -93.8875 272° West 382 440 19,100 -2,040 Descending Houston Center
08:33AM 29.5206 -94.0075 272° West 377 434 17,000 -1,920 Descending Houston Center
08:34AM 29.5258 -94.1192 273° West 356 410 15,200 -1,680 Descending Houston Center
08:35AM 29.5297 -94.2567 272° West 327 376 13,400 -1,080 Descending Houston Center
08:36AM 29.5347 -94.3464 274° West 310 357 13,000 -660 Descending Houston Center
08:37AM 29.5675 -94.4250 296° West 251 289 12,200 -1,380 Descending Houston Center
08:38AM 29.6006 -94.5047 296° West 264 304 10,300 -1,860 Descending Houston Center
08:39AM 29.6350 -94.5775 299° West 260 299 8,500 -1,740 Descending Houston Center
08:40AM 29.6806 -94.6342 313° West 254 292 7,000 -1,500 Descending Houston Center
08:41AM 29.7283 -94.6931 313° West 254 292 5,700 -1,200 Descending Houston Center
08:42AM 29.7761 -94.7497 314° West 251 289 4,400 -840 Descending Houston Center
08:43AM 29.8228 -94.8231 306° West 250 288 4,000 -240 Descending Houston Center
08:44AM 29.8589 -94.8950 300° West 253 291 4,000 -420 Level Houston Center
08:45AM 29.8939 -94.9656 300° West 256 295 3,200 -780 Descending Houston Center
08:46AM 29.9292 -95.0361 300° West 256 295 2,500 -600 Descending Houston Center
08:47AM 29.9636 -95.1072 299° West 256 295 2,000 -240 Descending Houston Center
08:48AM 29.9778 -95.1775 283° West 192 221 2,100 60 Climbing Houston Center